Time;durP1;ratioP1;P1;durP2;ratioP2;P2;SDS_P1;SDS_P2;PMS_P1;PMS_P2;Temp;Humidity;BMP_temperature;BMP_pressure;BME280_temperature;BME280_humidity;BME280_pressure;Samples;Min_cycle;Max_cycle;Signal;HPM_P1;HPM_P2
2022/01/26 00:06:29;;;;;;;38.25;27.63;;;8.30;99.90;;;;;;5005055;28;20381;-73
2022/01/26 00:08:56;;;;;;;38.05;28.45;;;8.30;99.90;;;;;;5023844;28;20029;-72
2022/01/26 00:11:23;;;;;;;36.92;27.65;;;8.30;99.90;;;;;;5024382;28;20445;-74
2022/01/26 00:13:51;;;;;;;39.30;26.30;;;8.30;99.90;;;;;;5026848;28;20037;-73
2022/01/26 00:17:01;;;;;;;36.50;27.25;;;8.30;99.90;;;;;;5039179;28;20358;-73
2022/01/26 00:19:17;;;;;;;37.05;26.42;;;8.20;99.90;;;;;;5036448;28;20051;-75
2022/01/26 00:21:48;;;;;;;42.55;28.63;;;8.10;99.90;;;;;;5030825;28;20510;-73
2022/01/26 00:24:52;;;;;;;37.15;28.35;;;8.10;99.90;;;;;;5023026;28;20090;-76
2022/01/26 00:28:07;;;;;;;40.67;29.95;;;8.00;99.90;;;;;;5017447;28;20472;-77
2022/01/26 00:31:13;;;;;;;37.53;29.02;;;7.90;99.90;;;;;;5022610;28;20476;-73
2022/01/26 00:34:17;;;;;;;45.25;31.15;;;7.80;99.90;;;;;;5024608;28;20037;-73
2022/01/26 00:38:42;;;;;;;44.50;32.78;;;7.90;99.90;;;;;;5028171;28;20053;-74
2022/01/26 00:41:14;;;;;;;45.05;31.40;;;7.80;99.90;;;;;;5028079;28;20042;-73
2022/01/26 00:43:46;;;;;;;43.77;30.73;;;7.80;99.90;;;;;;5036023;28;20041;-73
2022/01/26 00:46:13;;;;;;;42.60;31.90;;;7.70;99.90;;;;;;5042209;28;20124;-72
2022/01/26 00:48:43;;;;;;;42.22;30.25;;;7.70;99.90;;;;;;5044155;28;20292;-71
2022/01/26 00:51:16;;;;;;;44.25;31.02;;;7.60;99.90;;;;;;5047688;28;20045;-74
2022/01/26 00:53:46;;;;;;;48.40;31.40;;;7.60;99.90;;;;;;5047539;28;20037;-71
2022/01/26 00:56:14;;;;;;;45.53;30.50;;;7.60;99.90;;;;;;5030968;28;20041;-73
2022/01/26 00:58:41;;;;;;;43.13;32.88;;;7.60;99.90;;;;;;5041592;28;20099;-74
2022/01/26 01:01:07;;;;;;;44.35;32.80;;;7.60;99.90;;;;;;5040879;28;20044;-72
2022/01/26 01:03:38;;;;;;;42.70;32.25;;;7.60;99.90;;;;;;5044844;28;20048;-75
2022/01/26 01:06:11;;;;;;;48.97;34.33;;;7.50;99.90;;;;;;5035693;28;20034;-71
2022/01/26 01:08:41;;;;;;;44.50;32.70;;;7.50;99.90;;;;;;5041064;28;20045;-71
2022/01/26 01:11:09;;;;;;;44.55;32.60;;;7.50;99.90;;;;;;5041987;28;20390;-72
2022/01/26 01:13:39;;;;;;;43.83;31.17;;;7.50;99.90;;;;;;5047911;28;20034;-74
2022/01/26 01:16:07;;;;;;;46.13;31.75;;;7.50;99.90;;;;;;5028359;28;20041;-73
2022/01/26 01:18:59;;;;;;;46.17;32.80;;;7.40;99.90;;;;;;5041372;28;20049;-74
2022/01/26 01:31:49;;;;;;;48.50;31.20;;;7.40;99.90;;;;;;5040579;28;20083;-71
2022/01/26 01:34:19;;;;;;;41.35;29.67;;;7.50;99.90;;;;;;5053727;28;20037;-72
2022/01/26 01:36:49;;;;;;;43.35;30.52;;;7.50;99.90;;;;;;5041954;28;20118;-71
2022/01/26 01:39:18;;;;;;;43.13;29.25;;;7.50;99.90;;;;;;5024227;28;20179;-73
2022/01/26 01:41:46;;;;;;;42.75;30.20;;;7.40;99.90;;;;;;5025261;28;20041;-76
2022/01/26 01:44:13;;;;;;;42.72;29.45;;;7.30;99.90;;;;;;5040233;28;20045;-71
2022/01/26 01:46:41;;;;;;;40.25;28.20;;;7.30;99.90;;;;;;5030699;28;20052;-74
2022/01/26 01:49:10;;;;;;;42.88;30.25;;;7.30;99.90;;;;;;5039824;28;20561;-72
2022/01/26 01:51:40;;;;;;;46.35;30.25;;;7.30;99.90;;;;;;5031164;28;20033;-71
2022/01/26 01:54:17;;;;;;;49.08;30.25;;;7.20;99.90;;;;;;5050521;28;20068;-73
2022/01/26 01:56:49;;;;;;;40.83;30.63;;;7.20;99.90;;;;;;5040276;28;20051;-72
2022/01/26 01:59:16;;;;;;;45.03;29.95;;;7.10;99.90;;;;;;5045571;28;20044;-72
2022/01/26 02:01:42;;;;;;;43.85;31.65;;;7.20;99.90;;;;;;5046347;28;20478;-72
2022/01/26 02:04:08;;;;;;;43.55;30.13;;;7.10;99.90;;;;;;5042552;28;20183;-75
2022/01/26 02:06:35;;;;;;;46.25;31.00;;;7.10;99.90;;;;;;5034864;28;20124;-75
2022/01/26 02:09:03;;;;;;;48.55;30.63;;;7.10;99.90;;;;;;5025658;28;20033;-72
2022/01/26 02:11:29;;;;;;;42.08;28.30;;;7.20;99.90;;;;;;5045535;28;20496;-70
2022/01/26 02:14:06;;;;;;;42.58;29.52;;;7.20;99.90;;;;;;5048728;28;20039;-72
2022/01/26 02:16:44;;;;;;;43.38;29.75;;;7.10;99.90;;;;;;5039735;28;20473;-70
2022/01/26 02:55:24;;;;;;;37.47;25.47;;;7.20;99.90;;;;;;5039005;28;20072;-77
2022/01/26 02:57:47;;;;;;;37.50;25.25;;;7.20;99.90;;;;;;5035153;28;20033;-71
2022/01/26 03:00:22;;;;;;;34.13;24.55;;;7.30;99.90;;;;;;5041035;28;20070;-75
2022/01/26 03:02:56;;;;;;;39.00;25.75;;;7.20;99.90;;;;;;5035719;28;20051;-71
2022/01/26 03:05:28;;;;;;;40.40;26.48;;;7.10;99.90;;;;;;5034495;28;20033;-72
2022/01/26 03:08:05;;;;;;;38.65;27.25;;;7.20;99.90;;;;;;5029953;28;20428;-75
2022/01/26 03:10:50;;;;;;;39.28;25.80;;;7.20;99.90;;;;;;5038036;28;20453;-71
2022/01/26 03:13:19;;;;;;;39.38;27.70;;;7.10;99.90;;;;;;5038042;28;20044;-70
2022/01/26 03:15:54;;;;;;;38.70;27.35;;;7.10;99.90;;;;;;5039776;28;20041;-71
2022/01/26 03:18:42;;;;;;;39.65;27.90;;;7.00;99.90;;;;;;5035877;28;20049;-72
2022/01/26 03:21:09;;;;;;;43.35;29.35;;;7.10;99.90;;;;;;5045884;28;20052;-71
2022/01/26 03:34:09;;;;;;;40.67;26.80;;;7.00;99.90;;;;;;5035221;28;20051;-72
2022/01/26 03:36:49;;;;;;;38.35;27.58;;;7.30;99.90;;;;;;5045274;28;20037;-72
2022/01/26 03:39:18;;;;;;;41.33;27.02;;;7.30;99.90;;;;;;5041797;28;20095;-70
2022/01/26 03:41:49;;;;;;;38.47;24.10;;;7.30;99.90;;;;;;5038047;28;20091;-71
2022/01/26 03:44:16;;;;;;;33.90;23.63;;;7.20;99.90;;;;;;5044520;28;20033;-74
2022/01/26 03:46:47;;;;;;;35.85;23.27;;;7.10;99.90;;;;;;5043594;28;20086;-71
2022/01/26 03:49:14;;;;;;;36.90;24.80;;;7.10;99.90;;;;;;5032249;28;20119;-72
2022/01/26 03:51:41;;;;;;;37.53;25.40;;;7.10;99.90;;;;;;5038010;28;20051;-71
2022/01/26 03:54:09;;;;;;;33.67;24.55;;;7.00;99.90;;;;;;5043557;28;20034;-73
2022/01/26 03:56:36;;;;;;;35.70;24.17;;;7.00;99.90;;;;;;5037336;28;20082;-72
2022/01/26 03:59:04;;;;;;;35.50;25.02;;;6.90;99.90;;;;;;5037912;28;20037;-74
2022/01/26 04:01:30;;;;;;;36.22;25.77;;;6.90;99.90;;;;;;5035915;28;20124;-71
2022/01/26 04:03:57;;;;;;;40.53;26.33;;;6.90;99.90;;;;;;5039857;28;20057;-74
2022/01/26 04:06:24;;;;;;;39.95;26.75;;;6.90;99.90;;;;;;5044633;28;20095;-71
2022/01/26 04:08:50;;;;;;;34.25;24.50;;;6.90;99.90;;;;;;5037672;28;20029;-73
2022/01/26 04:13:44;;;;;;;26.00;17.48;;;6.90;99.90;;;;;;5037508;28;20066;-74
2022/01/26 04:16:11;;;;;;;30.73;18.40;;;7.20;99.90;;;;;;5037075;28;20381;-71
2022/01/26 04:18:39;;;;;;;24.23;18.08;;;7.50;99.90;;;;;;5025555;28;20660;-71
2022/01/26 04:21:32;;;;;;;25.50;17.98;;;7.40;99.90;;;;;;5040246;28;20396;-70
2022/01/26 04:24:24;;;;;;;22.95;16.17;;;7.50;99.90;;;;;;5034736;28;20026;-75
2022/01/26 04:27:01;;;;;;;24.13;17.35;;;7.60;99.90;;;;;;5040318;28;20052;-72
2022/01/26 04:29:30;;;;;;;24.00;16.65;;;7.50;99.90;;;;;;5035127;28;20076;-73
2022/01/26 04:31:58;;;;;;;19.98;12.02;;;7.50;99.90;;;;;;5039053;28;20026;-76
2022/01/26 04:34:24;;;;;;;14.50;9.75;;;7.40;99.90;;;;;;5054132;28;20064;-70
2022/01/26 04:36:57;;;;;;;15.38;11.77;;;7.50;99.90;;;;;;5040445;28;20040;-72
2022/01/26 04:39:31;;;;;;;17.20;12.02;;;8.00;99.90;;;;;;5037120;28;20053;-70
2022/01/26 04:44:57;;;;;;;21.15;14.90;;;7.50;99.90;;;;;;5009352;28;20133;-71
2022/01/26 04:47:24;;;;;;;23.08;14.43;;;7.40;99.90;;;;;;5018238;28;20045;-75
2022/01/26 04:49:50;;;;;;;21.77;16.65;;;7.40;99.90;;;;;;5033068;28;20044;-71
2022/01/26 04:52:16;;;;;;;15.50;11.10;;;7.50;99.90;;;;;;5039561;28;20041;-74
2022/01/26 04:54:42;;;;;;;24.77;14.98;;;7.50;99.90;;;;;;5037342;28;20118;-72
2022/01/26 04:57:08;;;;;;;22.33;16.08;;;7.60;99.90;;;;;;5047492;28;20168;-71
2022/01/26 04:59:35;;;;;;;22.35;15.95;;;7.60;99.90;;;;;;5038273;28;20556;-72
2022/01/26 05:02:01;;;;;;;21.75;14.02;;;7.50;99.90;;;;;;5039619;28;20034;-73
2022/01/26 05:04:27;;;;;;;17.17;9.32;;;7.70;99.90;;;;;;5040069;28;20044;-71
2022/01/26 05:06:53;;;;;;;14.77;9.52;;;8.00;99.90;;;;;;5048268;28;20045;-71
2022/01/26 05:09:21;;;;;;;17.70;12.57;;;8.30;99.90;;;;;;5038018;28;20127;-72
2022/01/26 05:11:51;;;;;;;17.85;12.07;;;8.10;99.90;;;;;;5040189;28;20524;-71
2022/01/26 05:14:18;;;;;;;22.25;13.55;;;8.00;99.90;;;;;;5042411;28;20034;-71
2022/01/26 05:16:45;;;;;;;21.55;14.43;;;7.80;99.90;;;;;;5037972;28;20044;-71
2022/01/26 05:19:11;;;;;;;22.80;14.55;;;7.70;99.90;;;;;;5039865;28;20045;-71
2022/01/26 05:21:37;;;;;;;20.52;13.52;;;7.50;99.90;;;;;;5040777;28;20087;-73
2022/01/26 05:24:04;;;;;;;19.98;13.60;;;7.60;99.90;;;;;;5036830;28;20052;-71
2022/01/26 05:26:30;;;;;;;20.85;13.30;;;7.60;99.90;;;;;;5040931;28;20481;-70
2022/01/26 05:28:56;;;;;;;21.38;14.07;;;7.50;99.90;;;;;;5032576;28;20048;-74
2022/01/26 05:31:22;;;;;;;21.50;13.25;;;7.40;99.90;;;;;;5044313;28;20162;-73
2022/01/26 05:33:49;;;;;;;21.20;14.02;;;7.50;99.90;;;;;;5043612;28;20029;-71
2022/01/26 05:36:16;;;;;;;20.08;14.10;;;7.40;99.90;;;;;;5031644;28;20124;-73
2022/01/26 05:38:42;;;;;;;21.17;13.07;;;7.50;99.90;;;;;;5057014;28;20029;-70
2022/01/26 05:41:09;;;;;;;21.65;13.15;;;7.30;99.90;;;;;;5044370;28;20033;-71
2022/01/26 05:43:36;;;;;;;23.02;14.60;;;7.20;99.90;;;;;;5040162;28;20377;-72
2022/01/26 05:46:11;;;;;;;20.75;14.10;;;7.20;99.90;;;;;;5037405;28;20552;-72
2022/01/26 05:48:43;;;;;;;18.10;10.82;;;7.20;99.90;;;;;;5026761;28;20041;-74
2022/01/26 05:51:16;;;;;;;17.90;11.38;;;7.20;99.90;;;;;;5040578;28;20126;-73
2022/01/26 05:53:42;;;;;;;17.75;12.05;;;7.30;99.90;;;;;;5038267;28;20033;-72
2022/01/26 05:56:09;;;;;;;18.92;12.73;;;7.40;99.90;;;;;;5043410;28;20135;-72
2022/01/26 05:58:35;;;;;;;20.52;12.38;;;7.40;99.90;;;;;;5039337;28;20037;-71
2022/01/26 06:01:01;;;;;;;23.75;16.80;;;7.40;99.90;;;;;;5041522;28;20044;-71
2022/01/26 06:03:29;;;;;;;19.98;13.10;;;7.40;99.90;;;;;;5038065;28;20043;-73
2022/01/26 06:05:55;;;;;;;19.05;13.50;;;7.30;99.90;;;;;;5037833;28;20036;-70
2022/01/26 06:08:23;;;;;;;20.55;12.57;;;7.20;99.90;;;;;;5038071;28;20041;-72
2022/01/26 06:10:50;;;;;;;20.33;12.68;;;7.20;99.90;;;;;;5038942;28;20045;-71
2022/01/26 06:13:16;;;;;;;20.75;13.18;;;7.20;99.90;;;;;;5040781;28;20039;-74
2022/01/26 06:15:43;;;;;;;23.75;12.23;;;7.30;99.90;;;;;;5042482;28;20038;-71
2022/01/26 06:18:10;;;;;;;17.83;11.80;;;7.20;99.90;;;;;;5040779;28;20045;-76
2022/01/26 06:20:38;;;;;;;17.17;12.57;;;7.00;99.90;;;;;;5038826;28;20047;-74
2022/01/26 06:23:04;;;;;;;16.17;11.90;;;7.10;99.90;;;;;;5037810;28;20534;-76
2022/01/26 06:25:31;;;;;;;20.10;12.65;;;6.90;99.90;;;;;;5043297;28;20121;-73
2022/01/26 06:27:59;;;;;;;24.77;12.95;;;7.00;99.90;;;;;;5041327;28;20496;-72
2022/01/26 06:30:26;;;;;;;20.00;12.35;;;6.90;99.90;;;;;;5044918;28;20080;-71
2022/01/26 06:32:55;;;;;;;18.90;12.27;;;6.90;99.90;;;;;;5041495;28;20037;-74
2022/01/26 06:35:21;;;;;;;21.00;12.13;;;6.80;99.90;;;;;;5038382;28;20515;-77
2022/01/26 06:37:47;;;;;;;17.55;11.57;;;6.80;99.90;;;;;;5044076;28;20097;-73
2022/01/26 06:40:13;;;;;;;20.50;13.02;;;6.80;99.90;;;;;;5042280;28;20527;-72
2022/01/26 06:43:05;;;;;;;18.42;13.05;;;6.90;99.90;;;;;;5041598;28;20025;-72
2022/01/26 06:45:33;;;;;;;22.05;12.43;;;7.00;99.90;;;;;;5039451;28;20393;-73
2022/01/26 06:50:45;;;;;;;22.60;12.70;;;7.00;99.90;;;;;;5037502;28;20052;-71
2022/01/26 06:53:13;;;;;;;18.23;13.07;;;7.20;99.90;;;;;;5043136;28;20040;-74
2022/01/26 06:55:40;;;;;;;18.45;12.57;;;7.10;99.90;;;;;;5039652;28;20195;-72
2022/01/26 06:58:07;;;;;;;19.92;12.65;;;7.20;99.90;;;;;;5041109;28;20041;-73
2022/01/26 07:00:33;;;;;;;15.85;10.25;;;7.10;99.90;;;;;;5045317;28;20033;-71
2022/01/26 07:02:58;;;;;;;20.00;11.30;;;7.30;99.90;;;;;;5040641;28;20039;-76
2022/01/26 07:05:25;;;;;;;14.25;10.48;;;7.30;99.90;;;;;;5034088;28;20185;-75
2022/01/26 07:07:52;;;;;;;19.02;10.88;;;7.30;99.90;;;;;;5034288;28;20557;-72
2022/01/26 07:10:19;;;;;;;17.08;11.77;;;7.40;99.90;;;;;;5056551;28;20548;-76
2022/01/26 07:12:46;;;;;;;20.15;11.60;;;7.30;99.90;;;;;;5043477;28;20041;-73
2022/01/26 07:23:39;;;;;;;17.33;10.75;;;7.20;99.90;;;;;;5040586;28;20045;-73
2022/01/26 07:26:05;;;;;;;17.98;10.00;;;7.10;99.90;;;;;;5026691;28;20048;-72
2022/01/26 07:28:36;;;;;;;19.52;10.68;;;7.10;99.90;;;;;;5039975;28;20047;-71
2022/01/26 07:31:04;;;;;;;17.67;10.40;;;7.20;99.90;;;;;;5039128;28;20040;-75
2022/01/26 07:33:32;;;;;;;19.48;10.80;;;7.20;99.90;;;;;;5036171;28;20124;-71
2022/01/26 07:35:58;;;;;;;17.38;10.07;;;7.20;99.90;;;;;;5042627;28;20025;-71
2022/01/26 07:38:26;;;;;;;15.90;9.70;;;7.20;99.90;;;;;;5040130;28;20522;-73
2022/01/26 07:40:54;;;;;;;16.95;10.20;;;7.30;99.90;;;;;;5037489;28;20041;-73
2022/01/26 07:43:20;;;;;;;19.75;10.30;;;7.30;99.90;;;;;;5031444;28;20063;-74
2022/01/26 07:45:46;;;;;;;22.25;10.93;;;7.30;99.90;;;;;;5043123;28;20076;-73
2022/01/26 07:48:12;;;;;;;19.17;9.95;;;7.30;99.90;;;;;;5038336;28;20046;-73
2022/01/26 07:50:39;;;;;;;28.80;10.45;;;7.50;99.90;;;;;;5042147;28;20029;-77
2022/01/26 07:53:05;;;;;;;22.02;11.05;;;7.50;99.90;;;;;;5032692;28;20055;-72
2022/01/26 07:55:32;;;;;;;23.05;10.68;;;7.50;99.90;;;;;;5040997;28;20037;-74
2022/01/26 07:57:59;;;;;;;20.20;9.80;;;7.50;99.90;;;;;;5016318;28;20049;-74
2022/01/26 08:00:25;;;;;;;21.40;9.57;;;7.70;99.90;;;;;;5009798;28;20037;-76
2022/01/26 08:02:52;;;;;;;22.05;9.40;;;7.90;99.90;;;;;;5029101;28;20064;-75
2022/01/26 08:05:21;;;;;;;14.68;8.80;;;8.00;99.90;;;;;;5006446;28;20056;-73
2022/01/26 08:07:48;;;;;;;16.17;8.82;;;8.20;99.90;;;;;;5019482;28;20049;-76
2022/01/26 08:10:15;;;;;;;23.40;9.80;;;8.50;99.90;;;;;;5021453;28;21656;-72
2022/01/26 08:12:42;;;;;;;14.50;9.63;;;8.60;99.90;;;;;;5025426;28;20049;-75
2022/01/26 08:15:10;;;;;;;19.33;10.52;;;8.70;99.90;;;;;;5025512;28;20463;-74
2022/01/26 08:17:37;;;;;;;21.38;10.02;;;8.70;99.90;;;;;;5027773;28;20041;-76
2022/01/26 08:20:05;;;;;;;17.33;10.75;;;8.70;99.90;;;;;;5022152;28;20045;-76
2022/01/26 08:22:33;;;;;;;20.90;11.18;;;8.70;99.90;;;;;;5027479;28;20037;-75
2022/01/26 08:25:00;;;;;;;19.48;10.80;;;8.80;99.90;;;;;;5021664;28;20051;-73
2022/01/26 08:27:29;;;;;;;21.63;10.48;;;8.80;99.90;;;;;;5017925;28;20060;-74
2022/01/26 08:30:03;;;;;;;23.10;11.50;;;8.80;99.90;;;;;;5021847;28;20037;-73
2022/01/26 08:32:29;;;;;;;24.17;12.00;;;9.20;99.90;;;;;;4998533;28;20049;-73
2022/01/26 08:34:54;;;;;;;22.75;11.55;;;11.10;99.90;;;;;;5031259;28;20040;-76
2022/01/26 08:37:20;;;;;;;23.45;12.55;;;13.00;99.60;;;;;;5027434;28;20580;-75
2022/01/26 08:39:46;;;;;;;31.95;13.00;;;14.20;98.10;;;;;;5031897;28;20037;-74
2022/01/26 08:42:13;;;;;;;19.23;11.70;;;15.50;97.00;;;;;;5029652;28;20038;-72
2022/01/26 08:44:40;;;;;;;24.15;12.18;;;16.40;94.30;;;;;;5027987;28;20116;-73
2022/01/26 08:47:07;;;;;;;18.73;11.05;;;17.00;93.70;;;;;;5034924;28;21801;-76
2022/01/26 08:49:33;;;;;;;24.95;12.18;;;17.30;92.10;;;;;;5021851;28;21637;-74
2022/01/26 08:52:00;;;;;;;24.38;15.32;;;17.00;92.00;;;;;;5028676;28;20061;-71
2022/01/26 08:54:27;;;;;;;27.73;14.48;;;16.50;92.90;;;;;;5023389;28;20105;-73
2022/01/26 08:56:54;;;;;;;32.08;16.55;;;16.80;93.10;;;;;;5019514;28;20049;-74
2022/01/26 08:59:23;;;;;;;24.50;15.15;;;17.10;93.50;;;;;;5020317;28;20041;-74
2022/01/26 09:01:51;;;;;;;32.13;15.55;;;16.80;93.10;;;;;;5030575;28;20033;-75
2022/01/26 09:04:17;;;;;;;23.52;14.43;;;15.80;93.10;;;;;;5042310;28;20033;-75
2022/01/26 09:06:52;;;;;;;25.48;14.63;;;16.50;92.70;;;;;;5044479;28;20756;-72
2022/01/26 09:09:21;;;;;;;21.35;12.55;;;16.40;92.20;;;;;;5038384;28;20037;-73
2022/01/26 09:11:48;;;;;;;18.73;12.18;;;16.30;90.40;;;;;;5042316;28;20219;-71
2022/01/26 09:14:21;;;;;;;19.90;11.88;;;16.50;89.30;;;;;;5038526;28;20029;-73
2022/01/26 09:16:51;;;;;;;23.33;11.60;;;16.60;90.30;;;;;;5040887;28;20040;-71
2022/01/26 09:19:28;;;;;;;22.65;12.73;;;16.40;90.10;;;;;;5031486;28;20049;-75
2022/01/26 09:22:06;;;;;;;23.73;13.52;;;16.10;91.00;;;;;;5036452;28;20033;-74
2022/01/26 09:24:35;;;;;;;25.55;14.25;;;15.90;91.70;;;;;;5041965;28;20034;-75
2022/01/26 09:27:02;;;;;;;26.27;14.25;;;15.50;91.90;;;;;;5028485;28;20040;-74
2022/01/26 09:29:28;;;;;;;21.85;12.52;;;15.00;92.00;;;;;;5033898;28;20451;-73
2022/01/26 09:31:54;;;;;;;22.35;13.07;;;14.50;92.00;;;;;;5031562;28;20025;-74
2022/01/26 09:34:23;;;;;;;20.45;11.90;;;14.20;92.20;;;;;;5022694;28;20650;-72
2022/01/26 09:36:50;;;;;;;20.05;12.20;;;14.10;92.40;;;;;;5040795;28;20033;-73
2022/01/26 09:39:19;;;;;;;19.10;13.02;;;13.90;92.50;;;;;;5033999;28;20043;-75
2022/01/26 09:41:47;;;;;;;20.70;12.50;;;13.80;92.20;;;;;;5038682;28;20536;-77
2022/01/26 09:44:17;;;;;;;20.33;12.70;;;13.60;92.50;;;;;;5044506;28;20466;-73
2022/01/26 09:46:45;;;;;;;21.52;13.75;;;13.50;92.70;;;;;;5045403;28;20066;-76
2022/01/26 09:49:17;;;;;;;21.17;13.07;;;13.50;92.90;;;;;;5040779;28;20398;-73
2022/01/26 09:51:50;;;;;;;22.63;13.73;;;13.90;92.90;;;;;;5041848;28;20440;-75
2022/01/26 09:54:18;;;;;;;24.13;13.48;;;14.30;92.80;;;;;;5038606;28;20028;-76
2022/01/26 09:56:47;;;;;;;19.25;13.85;;;14.70;92.30;;;;;;5045870;28;20448;-76
2022/01/26 09:59:15;;;;;;;20.90;14.13;;;15.10;91.90;;;;;;5018855;28;20046;-74
2022/01/26 10:01:47;;;;;;;30.50;14.80;;;15.50;91.80;;;;;;5011688;28;20131;-73
2022/01/26 10:04:40;;;;;;;23.17;13.57;;;15.80;91.00;;;;;;5017609;28;20037;-77
2022/01/26 10:10:18;;;;;;;23.88;14.32;;;16.10;90.90;;;;;;5026678;28;20041;-73
2022/01/26 10:15:51;;;;;;;24.77;15.43;;;16.50;90.30;;;;;;5023086;28;20052;-72
2022/01/26 10:18:21;;;;;;;23.17;15.43;;;16.50;89.70;;;;;;5024857;28;20049;-72
2022/01/26 10:20:50;;;;;;;25.88;15.18;;;16.70;90.00;;;;;;5016674;28;20045;-71
2022/01/26 10:23:22;;;;;;;25.77;15.05;;;16.40;90.00;;;;;;5023556;28;20055;-74
2022/01/26 10:26:05;;;;;;;19.13;15.20;;;16.30;89.60;;;;;;5032550;28;20025;-74
2022/01/26 10:28:50;;;;;;;22.08;15.88;;;16.60;89.70;;;;;;5013305;28;20233;-74
2022/01/26 10:31:19;;;;;;;27.42;16.02;;;16.80;89.50;;;;;;5029235;28;20047;-74
2022/01/26 10:34:19;;;;;;;23.35;15.63;;;17.00;89.90;;;;;;5026820;28;20055;-72
2022/01/26 10:36:50;;;;;;;22.67;15.77;;;17.40;90.00;;;;;;5018163;28;20361;-72
2022/01/26 10:39:31;;;;;;;25.75;16.20;;;17.60;89.00;;;;;;5025467;28;20025;-77
2022/01/26 10:42:01;;;;;;;23.50;15.25;;;17.40;88.50;;;;;;5027022;28;20033;-72
2022/01/26 10:44:48;;;;;;;24.67;16.20;;;17.20;88.30;;;;;;5027547;28;20095;-71
2022/01/26 10:47:31;;;;;;;25.20;15.73;;;17.20;88.40;;;;;;5030066;28;20072;-72
2022/01/26 10:52:42;;;;;;;26.02;15.55;;;17.70;88.30;;;;;;5027867;28;20180;-76
2022/01/26 10:55:09;;;;;;;27.23;15.43;;;17.20;87.80;;;;;;5032714;28;20128;-78
2022/01/26 10:57:36;;;;;;;33.00;15.98;;;17.30;88.10;;;;;;5044756;28;20043;-72
2022/01/26 11:00:05;;;;;;;25.75;16.95;;;17.80;88.10;;;;;;5023799;28;20445;-74
2022/01/26 11:02:33;;;;;;;27.77;17.48;;;17.70;88.50;;;;;;5025169;28;20423;-78
2022/01/26 11:04:59;;;;;;;28.35;17.67;;;17.90;88.80;;;;;;5015831;28;20729;-72
2022/01/26 11:07:36;;;;;;;31.40;18.48;;;17.80;88.40;;;;;;5030896;28;20043;-75
2022/01/26 11:10:06;;;;;;;39.22;19.95;;;17.70;88.90;;;;;;5040815;28;20072;-74
2022/01/26 11:12:32;;;;;;;42.90;20.23;;;17.90;89.70;;;;;;5029430;28;20029;-73
2022/01/26 11:15:14;;;;;;;38.30;19.05;;;18.20;89.30;;;;;;5038717;28;20037;-77
2022/01/26 11:17:46;;;;;;;38.40;20.00;;;18.40;89.90;;;;;;5038034;28;20033;-73
2022/01/26 11:20:28;;;;;;;35.83;20.33;;;18.70;89.10;;;;;;5035253;28;20105;-72
2022/01/26 11:23:00;;;;;;;39.10;21.27;;;19.00;88.30;;;;;;5036813;28;20044;-71
2022/01/26 11:25:29;;;;;;;38.83;21.15;;;19.30;88.00;;;;;;5031787;28;20488;-78
2022/01/26 11:27:58;;;;;;;31.77;19.63;;;19.50;87.20;;;;;;5042173;28;20037;-77
2022/01/26 11:30:31;;;;;;;36.35;20.02;;;19.80;87.10;;;;;;5036841;28;20045;-78
2022/01/26 11:33:03;;;;;;;37.20;20.33;;;19.70;86.20;;;;;;5044323;28;20030;-72
2022/01/26 11:35:36;;;;;;;34.38;19.13;;;19.90;86.50;;;;;;5036333;28;20045;-73
2022/01/26 11:39:14;;;;;;;28.73;19.75;;;19.70;86.40;;;;;;5034611;28;20048;-74
2022/01/26 11:46:32;;;;;;;24.13;18.90;;;20.30;86.40;;;;;;5023355;28;20047;-74
2022/01/26 11:49:06;;;;;;;29.40;18.77;;;20.00;86.80;;;;;;5019783;28;20088;-73
2022/01/26 11:51:55;;;;;;;29.67;18.60;;;20.30;86.70;;;;;;5020638;28;20508;-74
2022/01/26 11:54:43;;;;;;;31.80;17.85;;;20.60;86.20;;;;;;5024559;28;20037;-72
2022/01/26 11:57:13;;;;;;;34.35;17.77;;;21.00;85.10;;;;;;5022980;28;20114;-72
2022/01/26 11:59:46;;;;;;;36.63;19.38;;;21.80;84.70;;;;;;5022701;28;20038;-78
2022/01/26 12:02:39;;;;;;;28.25;18.00;;;22.10;83.80;;;;;;5023061;28;20057;-74
2022/01/26 12:05:10;;;;;;;28.40;17.85;;;22.30;81.70;;;;;;5030430;28;20108;-78
2022/01/26 12:07:55;;;;;;;38.37;17.23;;;20.80;78.80;;;;;;5024306;28;20055;-73
2022/01/26 12:10:29;;;;;;;24.90;15.93;;;19.50;79.70;;;;;;5020631;28;20729;-72
2022/01/26 12:13:05;;;;;;;19.10;13.25;;;19.60;79.60;;;;;;5022032;28;20139;-72
2022/01/26 12:15:48;;;;;;;18.60;12.80;;;19.70;77.60;;;;;;5015453;28;20045;-75
2022/01/26 12:18:38;;;;;;;15.75;11.65;;;20.60;76.60;;;;;;5014694;28;20065;-75
2022/01/26 12:38:18;;;;;;;19.47;10.87;;;19.80;77.10;;;;;;5021721;28;20122;-77
2022/01/26 12:43:43;;;;;;;14.50;10.18;;;19.30;76.90;;;;;;5025930;28;20047;-74
2022/01/26 12:46:29;;;;;;;18.48;9.85;;;20.10;76.20;;;;;;5025740;28;20052;-79
2022/01/26 12:49:10;;;;;;;17.10;10.35;;;19.80;75.30;;;;;;5022955;28;20064;-76
2022/01/26 12:51:42;;;;;;;18.20;10.23;;;19.50;76.70;;;;;;5022598;28;20067;-73
2022/01/26 12:54:09;;;;;;;17.35;9.90;;;20.20;75.60;;;;;;5021018;28;20041;-78
2022/01/26 12:56:35;;;;;;;21.17;10.25;;;20.70;75.10;;;;;;5043942;28;20167;-75
2022/01/26 12:59:12;;;;;;;20.17;9.60;;;19.70;76.30;;;;;;5016393;28;20556;-75
2022/01/26 13:01:41;;;;;;;16.20;9.32;;;20.00;76.00;;;;;;5041765;28;20495;-74
2022/01/26 13:04:11;;;;;;;15.75;9.55;;;20.90;76.30;;;;;;5024762;28;20045;-76
2022/01/26 13:06:56;;;;;;;13.32;9.38;;;21.90;75.50;;;;;;5033237;28;20024;-75
2022/01/26 13:09:26;;;;;;;18.23;9.18;;;21.50;75.10;;;;;;5036931;28;20045;-76
2022/01/26 13:11:59;;;;;;;15.40;9.60;;;21.20;76.00;;;;;;5039403;28;20040;-73
2022/01/26 13:14:30;;;;;;;16.65;9.60;;;20.90;76.70;;;;;;5037253;28;20047;-73
2022/01/26 13:17:51;;;;;;;;;;;21.90;76.80;;;;;;5038543;28;20182;-74
2022/01/26 13:20:00;;;;;;;14.90;10.23;;;21.70;78.20;;;;;;5038558;28;19920;-72
2022/01/26 13:37:12;;;;;;;16.63;9.98;;;22.50;78.30;;;;;;5025479;28;20044;-76
2022/01/26 14:00:22;;;;;;;12.45;8.60;;;21.60;78.20;;;;;;5036021;28;20044;-73
2022/01/26 14:02:53;;;;;;;12.18;8.15;;;21.90;78.60;;;;;;5045013;28;20040;-74
2022/01/26 14:05:19;;;;;;;12.27;8.32;;;22.70;77.90;;;;;;5046674;28;20373;-74
2022/01/26 14:07:46;;;;;;;12.30;8.63;;;22.70;77.90;;;;;;5047821;28;20041;-74
2022/01/26 14:10:12;;;;;;;13.55;8.48;;;21.90;78.40;;;;;;5035829;28;20048;-74
2022/01/26 14:12:45;;;;;;;13.77;8.10;;;21.10;79.30;;;;;;5041942;28;20499;-77
2022/01/26 14:15:26;;;;;;;16.33;8.13;;;21.70;79.40;;;;;;5037832;28;20052;-76
2022/01/26 14:18:12;;;;;;;15.80;8.32;;;21.90;79.20;;;;;;5038823;28;20127;-72
2022/01/26 14:20:57;;;;;;;11.50;8.10;;;21.10;79.70;;;;;;5041544;28;20435;-74
2022/01/26 14:26:12;;;;;;;17.85;8.07;;;20.50;80.90;;;;;;5042493;28;20102;-72
2022/01/26 14:28:39;;;;;;;13.15;8.05;;;20.70;81.80;;;;;;5043991;28;20476;-73
2022/01/26 14:55:55;;;;;;;13.00;7.07;;;19.70;84.50;;;;;;5017759;28;20056;-76
2022/01/26 15:44:02;;;;;;;10.57;7.50;;;18.60;87.00;;;;;;5027786;28;20139;-75
2022/01/26 15:49:46;;;;;;;11.57;7.38;;;18.60;90.20;;;;;;5040439;28;20044;-75
2022/01/26 15:52:51;;;;;;;14.18;7.60;;;18.40;90.20;;;;;;5025194;28;20044;-74
2022/01/26 16:06:08;;;;;;;15.05;9.50;;;17.40;91.90;;;;;;5028297;28;20052;-74
2022/01/26 16:12:41;;;;;;;;;;;17.40;92.10;;;;;;5026899;28;20037;-72
2022/01/26 17:43:39;;;;;;;21.73;13.85;;;11.50;99.90;;;;;;5040084;28;20110;-76
2022/01/26 18:06:25;;;;;;;20.48;12.10;;;11.70;99.90;;;;;;5040736;28;20649;-73
2022/01/26 18:15:14;;;;;;;18.05;9.88;;;11.50;99.90;;;;;;5036497;28;20104;-72
2022/01/26 18:51:58;;;;;;;20.35;12.32;;;11.70;99.90;;;;;;5038305;28;20082;-73
2022/01/26 18:54:29;;;;;;;19.80;11.98;;;11.70;99.90;;;;;;5038732;28;20049;-76
2022/01/26 18:56:58;;;;;;;20.13;12.13;;;11.70;99.90;;;;;;5034655;28;20045;-73
2022/01/26 18:59:25;;;;;;;22.52;11.10;;;11.70;99.90;;;;;;5000865;28;20912;-74
2022/01/26 19:01:53;;;;;;;19.90;11.98;;;11.70;99.90;;;;;;5028878;28;20095;-73
2022/01/26 19:04:34;;;;;;;19.73;10.82;;;11.60;99.90;;;;;;5035531;28;20033;-73
2022/01/26 19:07:04;;;;;;;21.60;11.40;;;11.60;99.90;;;;;;5039217;28;20075;-75
2022/01/26 19:09:34;;;;;;;19.50;10.57;;;11.50;99.90;;;;;;5052462;28;20033;-74
2022/01/26 19:12:02;;;;;;;23.65;12.10;;;11.40;99.90;;;;;;5047461;28;20119;-74
2022/01/26 19:14:36;;;;;;;17.75;10.50;;;11.50;99.90;;;;;;5037631;28;20040;-74
2022/01/26 19:17:30;;;;;;;19.63;11.55;;;11.70;99.90;;;;;;5028989;28;20059;-73
2022/01/26 19:22:44;;;;;;;25.38;11.77;;;11.70;99.90;;;;;;5030760;28;20040;-76
2022/01/26 19:25:24;;;;;;;19.38;11.57;;;11.60;99.90;;;;;;5022689;28;20396;-73
2022/01/26 19:52:05;;;;;;;18.63;10.30;;;11.20;99.90;;;;;;5038183;28;20172;-74